Time;durP1;ratioP1;P1;durP2;ratioP2;P2;SDS_P1;SDS_P2;PMS_P1;PMS_P2;Temp;Humidity;BMP_temperature;BMP_pressure;BME280_temperature;BME280_humidity;BME280_pressure;Samples;Min_cycle;Max_cycle;Signal;HPM_P1;HPM_P2
2022/08/05 00:01:53;;;;;;;7.70;4.30;;;;;;;27.72;44.61;99465.28;5093101;28;20195;-66
2022/08/05 00:04:21;;;;;;;6.27;3.60;;;;;;;27.77;44.82;99470.59;5092747;28;20195;-66
2022/08/05 00:06:48;;;;;;;5.87;3.80;;;;;;;27.82;44.44;99473.25;5092781;28;20187;-66
2022/08/05 00:09:15;;;;;;;4.23;3.83;;;;;;;27.82;44.68;99467.78;5093153;28;20605;-66
2022/08/05 00:11:41;;;;;;;3.87;3.57;;;;;;;27.74;44.97;99454.84;5092566;28;20288;-65
2022/08/05 00:14:08;;;;;;;8.83;4.07;;;;;;;27.75;45.19;99470.09;5092955;28;20248;-66
2022/08/05 00:16:35;;;;;;;5.97;4.53;;;;;;;27.67;45.50;99470.81;5092597;28;20221;-66
2022/08/05 00:19:01;;;;;;;4.03;3.77;;;;;;;27.69;45.61;99463.94;5092537;28;20195;-65
2022/08/05 00:21:30;;;;;;;4.70;4.40;;;;;;;27.68;45.31;99467.00;5092853;28;20195;-66
2022/08/05 00:23:59;;;;;;;4.03;3.80;;;;;;;27.68;45.85;99467.00;5092784;28;20199;-66
2022/08/05 00:26:26;;;;;;;5.70;4.50;;;;;;;27.62;46.02;99468.22;5093014;28;20187;-66
2022/08/05 00:28:52;;;;;;;4.73;4.33;;;;;;;27.55;46.47;99457.72;5092371;28;20614;-66
2022/08/05 00:31:20;;;;;;;4.70;4.50;;;;;;;27.56;46.33;99464.78;5092322;28;20297;-66
2022/08/05 00:33:46;;;;;;;5.20;4.90;;;;;;;27.53;46.24;99457.25;5092658;28;20187;-66
2022/08/05 00:36:13;;;;;;;6.00;4.43;;;;;;;27.50;46.73;99462.47;5092269;28;20195;-66
2022/08/05 00:38:42;;;;;;;4.73;4.27;;;;;;;27.49;46.54;99452.69;5092245;28;20198;-66
2022/08/05 00:41:09;;;;;;;7.83;4.30;;;;;;;27.51;46.75;99453.19;5092504;28;20203;-66
2022/08/05 00:43:36;;;;;;;4.73;4.10;;;;;;;27.58;46.11;99456.28;5092514;28;20191;-66
2022/08/05 00:46:03;;;;;;;4.10;3.90;;;;;;;27.57;46.42;99457.41;5092188;28;20735;-66
2022/08/05 00:48:30;;;;;;;5.63;3.90;;;;;;;27.54;46.46;99452.56;5092464;28;20213;-66
2022/08/05 00:50:56;;;;;;;4.60;4.20;;;;;;;27.54;46.41;99450.66;5092026;28;20280;-66
2022/08/05 00:53:23;;;;;;;4.70;4.30;;;;;;;27.46;47.06;99447.84;5091863;28;20191;-67
2022/08/05 00:55:51;;;;;;;4.40;4.03;;;;;;;27.44;47.01;99444.63;5091207;28;20191;-67
2022/08/05 00:58:18;;;;;;;4.73;4.30;;;;;;;27.40;47.10;99441.69;5091757;28;20223;-67
2022/08/05 01:00:46;;;;;;;5.77;4.00;;;;;;;27.34;47.23;99447.56;5091866;28;20316;-68
2022/08/05 01:03:13;;;;;;;6.17;4.20;;;;;;;27.33;47.45;99443.22;5091787;28;20256;-67
2022/08/05 01:05:40;;;;;;;7.13;4.47;;;;;;;27.26;47.45;99448.28;5091308;28;20727;-66
2022/08/05 01:08:07;;;;;;;6.90;5.17;;;;;;;27.08;46.83;99447.28;5091528;28;20187;-67
2022/08/05 01:10:40;;;;;;;5.17;4.80;;;;;;;26.66;47.91;99449.50;5091180;28;20268;-66
2022/08/05 01:13:14;;;;;;;5.10;4.70;;;;;;;26.46;48.15;99449.84;5091155;28;20252;-66
2022/08/05 01:15:46;;;;;;;5.40;4.80;;;;;;;26.27;49.26;99452.63;5090956;28;20244;-67
2022/08/05 01:18:22;;;;;;;5.00;4.60;;;;;;;26.16;50.23;99439.47;5090855;28;20183;-66
2022/08/05 01:20:59;;;;;;;4.87;4.53;;;;;;;26.06;50.57;99443.19;5094217;28;20260;-66
2022/08/05 01:23:40;;;;;;;4.80;4.50;;;;;;;26.17;50.31;99441.91;5095340;28;20232;-66
2022/08/05 01:26:33;;;;;;;5.27;4.30;;;;;;;26.31;50.03;99444.66;5095309;28;20614;-66
2022/08/05 01:29:05;;;;;;;5.00;4.57;;;;;;;26.47;49.28;99440.56;5095224;28;20192;-67
2022/08/05 01:31:37;;;;;;;4.37;3.90;;;;;;;26.60;49.12;99442.53;5095604;28;20272;-66
2022/08/05 01:34:10;;;;;;;4.73;4.30;;;;;;;26.70;48.66;99451.31;5095282;28;20183;-66
2022/08/05 01:36:43;;;;;;;5.23;4.40;;;;;;;26.81;48.11;99446.47;5094929;28;20183;-68
2022/08/05 01:39:10;;;;;;;4.53;4.30;;;;;;;26.87;47.98;99456.97;5095016;28;20651;-67
2022/08/05 01:41:40;;;;;;;6.47;4.07;;;;;;;26.92;47.53;99453.34;5095269;28;20244;-66
2022/08/05 01:44:10;;;;;;;5.27;4.00;;;;;;;26.97;47.71;99453.22;5095037;28;20187;-68
2022/08/05 01:46:39;;;;;;;4.47;4.10;;;;;;;26.95;47.62;99452.75;5094977;28;20196;-69
2022/08/05 01:49:08;;;;;;;6.60;4.20;;;;;;;27.01;47.68;99456.97;5095041;28;20191;-66
2022/08/05 01:51:36;;;;;;;4.53;4.23;;;;;;;26.97;47.48;99445.88;5095378;28;20215;-66
2022/08/05 01:54:07;;;;;;;4.50;4.10;;;;;;;27.04;47.59;99456.38;5095125;28;20736;-66
2022/08/05 01:56:38;;;;;;;4.40;4.07;;;;;;;27.05;47.38;99447.06;5094958;28;20241;-66
2022/08/05 01:59:11;;;;;;;4.37;3.97;;;;;;;27.12;47.42;99452.94;5094929;28;20640;-68
2022/08/05 02:01:39;;;;;;;4.80;4.40;;;;;;;27.07;47.25;99451.09;5094712;28;20188;-66
2022/08/05 02:04:07;;;;;;;4.50;4.10;;;;;;;27.03;47.50;99449.31;5094855;28;20199;-67
2022/08/05 02:06:35;;;;;;;4.67;4.23;;;;;;;27.08;47.81;99457.38;5095208;28;20203;-66
2022/08/05 02:09:02;;;;;;;4.97;4.00;;;;;;;27.09;47.53;99446.16;5094715;28;20199;-66
2022/08/05 02:11:36;;;;;;;4.13;3.93;;;;;;;27.15;46.81;99455.06;5094804;28;20230;-67
2022/08/05 02:14:08;;;;;;;4.13;3.80;;;;;;;27.18;46.48;99457.16;5094731;28;20191;-67
2022/08/05 02:16:43;;;;;;;5.07;4.67;;;;;;;27.16;46.24;99459.38;5094494;28;20609;-67
2022/08/05 02:19:17;;;;;;;4.20;3.90;;;;;;;27.12;46.59;99453.72;5094415;28;20647;-67
2022/08/05 02:21:52;;;;;;;4.83;4.20;;;;;;;27.10;46.89;99460.59;5094684;28;20187;-67
2022/08/05 02:24:26;;;;;;;4.43;4.03;;;;;;;27.09;47.02;99459.81;5094812;28;20237;-66
2022/08/05 02:26:56;;;;;;;4.60;4.30;;;;;;;27.07;47.11;99455.78;5094557;28;20203;-66
2022/08/05 02:29:27;;;;;;;4.33;4.03;;;;;;;26.97;46.91;99451.31;5094817;28;20187;-66
2022/08/05 02:31:57;;;;;;;4.13;3.90;;;;;;;26.86;47.92;99449.13;5094004;28;20272;-67
2022/08/05 02:34:26;;;;;;;4.87;4.53;;;;;;;26.74;47.85;99451.53;5094435;28;20184;-66
2022/08/05 02:36:55;;;;;;;4.63;4.30;;;;;;;26.76;47.58;99443.84;5093884;28;20285;-66
2022/08/05 02:39:23;;;;;;;4.60;4.20;;;;;;;26.69;47.96;99448.88;5094016;28;20200;-67
2022/08/05 02:41:52;;;;;;;4.73;4.30;;;;;;;26.75;47.74;99453.13;5094224;28;20199;-66
2022/08/05 02:44:21;;;;;;;4.10;3.90;;;;;;;26.80;47.69;99451.13;5094042;28;20191;-66
2022/08/05 02:46:49;;;;;;;3.80;3.60;;;;;;;26.81;47.21;99449.19;5093883;28;20195;-66
2022/08/05 02:49:18;;;;;;;4.53;3.73;;;;;;;26.77;47.32;99443.53;5093471;28;20191;-67
2022/08/05 02:51:46;;;;;;;4.30;3.90;;;;;;;26.72;47.37;99445.56;5093518;28;20702;-65
2022/08/05 02:54:14;;;;;;;4.40;4.00;;;;;;;26.74;47.59;99443.34;5093891;28;20196;-68
2022/08/05 02:56:43;;;;;;;4.40;4.10;;;;;;;26.85;46.72;99458.38;5093485;28;20195;-68
2022/08/05 02:59:11;;;;;;;4.40;3.83;;;;;;;26.88;46.92;99446.88;5093818;28;20234;-67
2022/08/05 03:01:40;;;;;;;3.97;3.60;;;;;;;26.83;46.75;99452.44;5093476;28;20732;-66
2022/08/05 03:04:09;;;;;;;4.73;4.13;;;;;;;26.70;47.29;99455.97;5093502;28;20282;-66
2022/08/05 03:06:38;;;;;;;4.37;4.07;;;;;;;26.72;46.89;99451.00;5093731;28;20195;-66
2022/08/05 03:09:05;;;;;;;5.77;4.00;;;;;;;26.64;46.79;99455.25;5093724;28;20832;-66
2022/08/05 03:11:32;;;;;;;4.43;4.13;;;;;;;26.65;46.89;99454.13;5093464;28;20223;-66
2022/08/05 03:13:59;;;;;;;5.20;4.50;;;;;;;26.64;46.82;99457.16;5093629;28;20232;-66
2022/08/05 03:16:26;;;;;;;5.40;4.20;;;;;;;26.57;47.16;99456.72;5093094;28;20344;-66
2022/08/05 03:18:53;;;;;;;6.10;4.00;;;;;;;26.46;47.56;99449.84;5092788;28;20624;-65
2022/08/05 03:21:19;;;;;;;4.20;3.97;;;;;;;26.41;47.76;99463.56;5093228;28;20202;-65
2022/08/05 03:23:48;;;;;;;4.30;3.90;;;;;;;26.44;47.70;99452.06;5093093;28;20254;-65
2022/08/05 03:26:14;;;;;;;3.53;3.23;;;;;;;26.46;47.31;99455.28;5092826;28;20713;-67
2022/08/05 03:28:41;;;;;;;4.97;3.67;;;;;;;26.42;47.59;99459.72;5093300;28;20195;-65
2022/08/05 03:31:09;;;;;;;3.93;3.73;;;;;;;26.27;47.74;99454.53;5093032;28;20288;-66
2022/08/05 03:33:36;;;;;;;3.90;3.60;;;;;;;26.42;47.54;99462.47;5093184;28;20192;-66
2022/08/05 03:36:03;;;;;;;4.17;3.97;;;;;;;26.36;47.62;99456.28;5093099;28;20744;-66
2022/08/05 03:38:30;;;;;;;4.87;3.73;;;;;;;26.39;47.62;99463.03;5093064;28;20253;-67
2022/08/05 03:40:58;;;;;;;4.27;3.90;;;;;;;26.42;47.22;99465.19;5092969;28;20252;-66
2022/08/05 03:43:25;;;;;;;5.63;4.10;;;;;;;26.48;46.99;99458.50;5092132;28;20249;-66
2022/08/05 03:45:52;;;;;;;4.73;3.77;;;;;;;26.42;46.69;99455.06;5092829;28;20731;-66
2022/08/05 03:48:20;;;;;;;3.90;3.60;;;;;;;26.21;47.34;99461.19;5092891;28;20199;-66
2022/08/05 03:50:51;;;;;;;3.87;3.57;;;;;;;25.97;47.70;99463.22;5092687;28;20195;-66
2022/08/05 03:53:28;;;;;;;5.57;3.90;;;;;;;25.99;48.12;99463.72;5092377;28;20271;-66
2022/08/05 03:56:02;;;;;;;7.27;4.30;;;;;;;25.98;47.74;99456.66;5092747;28;20183;-67
2022/08/05 03:58:32;;;;;;;6.23;3.53;;;;;;;25.91;48.18;99453.47;5092390;28;20723;-67
2022/08/05 04:01:02;;;;;;;3.90;3.60;;;;;;;25.90;48.64;99452.69;5092418;28;20187;-67
2022/08/05 04:03:34;;;;;;;5.93;3.57;;;;;;;25.95;48.51;99457.25;5092414;28;20187;-67
2022/08/05 04:06:02;;;;;;;4.73;3.70;;;;;;;26.32;47.53;99454.44;5092109;28;20670;-67
2022/08/05 04:08:29;;;;;;;4.43;4.00;;;;;;;26.57;46.19;99456.72;5092713;28;20198;-67
2022/08/05 04:10:59;;;;;;;6.90;4.13;;;;;;;26.89;45.51;99462.94;5091981;28;20737;-69
2022/08/05 04:13:26;;;;;;;7.63;4.50;;;;;;;27.33;44.17;99459.59;5091989;28;20191;-67
2022/08/05 04:15:52;;;;;;;8.67;4.30;;;;;;;27.65;43.62;99456.69;5091471;28;20667;-68
2022/08/05 04:18:22;;;;;;;8.67;5.10;;;;;;;28.03;42.46;99449.78;5091646;28;20221;-67
2022/08/05 04:20:53;;;;;;;7.57;4.00;;;;;;;28.45;41.40;99461.00;5091496;28;20191;-65
2022/08/05 04:23:20;;;;;;;6.40;3.67;;;;;;;28.80;40.58;99456.50;5092130;28;20190;-70
2022/08/05 04:25:47;;;;;;;5.27;4.33;;;;;;;29.20;39.53;99461.66;5091656;28;20194;-67
2022/08/05 04:28:15;;;;;;;4.33;3.97;;;;;;;29.66;38.49;99458.38;5092122;28;20271;-68
2022/08/05 04:30:42;;;;;;;4.60;3.60;;;;;;;29.91;37.87;99454.84;5092209;28;20272;-67
2022/08/05 04:33:08;;;;;;;7.37;3.83;;;;;;;30.17;36.83;99452.09;5091439;28;20219;-66
2022/08/05 04:35:35;;;;;;;3.77;3.57;;;;;;;30.44;36.65;99447.03;5091566;28;20195;-66
2022/08/05 04:38:02;;;;;;;4.40;4.00;;;;;;;30.71;35.19;99451.31;5091890;28;20255;-66
2022/08/05 04:40:29;;;;;;;3.93;3.57;;;;;;;30.83;35.33;99449.47;5091814;28;20199;-67
2022/08/05 04:42:55;;;;;;;3.37;3.17;;;;;;;31.15;35.09;99457.06;5091456;28;20621;-67
2022/08/05 04:45:24;;;;;;;5.77;4.50;;;;;;;31.51;34.28;99451.03;5091529;28;20191;-68
2022/08/05 04:47:51;;;;;;;4.10;3.37;;;;;;;31.68;33.72;99448.97;5091822;28;20187;-66
2022/08/05 04:50:18;;;;;;;3.63;3.10;;;;;;;31.92;33.05;99445.56;5091077;28;20740;-68
2022/08/05 04:52:45;;;;;;;4.10;2.80;;;;;;;32.12;32.89;99448.28;5091592;28;20227;-66
2022/08/05 04:55:11;;;;;;;3.73;3.43;;;;;;;32.40;32.25;99449.31;5091040;28;20252;-65
2022/08/05 04:57:38;;;;;;;5.47;3.57;;;;;;;32.71;31.75;99448.81;5091438;28;20284;-65
2022/08/05 05:00:06;;;;;;;93.17;9.80;;;;;;;32.94;31.40;99448.03;5091289;28;20195;-66
2022/08/05 05:02:34;;;;;;;6.17;4.17;;;;;;;33.10;31.74;99451.72;5091315;28;20286;-67
2022/08/05 05:05:01;;;;;;;4.57;3.40;;;;;;;33.20;31.16;99455.97;5091201;28;20623;-65
2022/08/05 05:07:27;;;;;;;3.33;3.07;;;;;;;33.40;30.78;99459.75;5091292;28;20544;-65
2022/08/05 05:09:54;;;;;;;4.20;3.80;;;;;;;33.70;30.71;99452.78;5091101;28;20198;-66
2022/08/05 05:12:21;;;;;;;4.00;3.03;;;;;;;33.68;30.46;99455.88;5090946;28;20231;-66
2022/08/05 05:14:47;;;;;;;3.63;3.20;;;;;;;33.81;30.55;99464.91;5091340;28;20187;-65
2022/08/05 05:17:14;;;;;;;3.40;3.10;;;;;;;33.98;30.65;99456.38;5090765;28;20191;-66
2022/08/05 05:19:44;;;;;;;4.07;3.67;;;;;;;34.47;29.97;99455.84;5091128;28;20762;-65
2022/08/05 05:22:10;;;;;;;3.72;3.50;;;;;;;34.39;29.78;99453.22;5090704;28;20229;-65
2022/08/05 05:24:37;;;;;;;3.53;3.23;;;;;;;34.45;30.03;99446.31;5091251;28;20191;-66
2022/08/05 05:27:04;;;;;;;3.50;3.20;;;;;;;34.49;29.93;99447.97;5090872;28;20187;-65
2022/08/05 05:29:31;;;;;;;4.28;2.75;;;;;;;34.86;29.53;99449.34;5091147;28;20268;-66
2022/08/05 05:31:57;;;;;;;8.45;3.22;;;;;;;35.11;29.34;99453.50;5082147;28;20220;-69
2022/08/05 05:34:24;;;;;;;2.97;2.78;;;;;;;35.39;28.97;99442.38;5066173;28;20196;-66
2022/08/05 05:36:52;;;;;;;4.22;2.83;;;;;;;35.76;27.95;99451.91;5070808;28;20245;-66
2022/08/05 05:39:19;;;;;;;4.43;3.22;;;;;;;35.96;27.92;99445.19;5070899;28;20195;-66
2022/08/05 05:41:45;;;;;;;6.25;2.95;;;;;;;36.25;27.91;99448.19;5070607;28;20195;-66
2022/08/05 05:44:12;;;;;;;3.92;2.90;;;;;;;36.29;27.24;99448.25;5070611;28;20277;-66
2022/08/05 05:46:39;;;;;;;5.13;3.05;;;;;;;36.35;26.88;99452.31;5070680;28;20196;-67
2022/08/05 05:49:06;;;;;;;5.03;3.10;;;;;;;36.74;26.60;99451.06;5069942;28;20196;-66
2022/08/05 05:51:32;;;;;;;2.63;2.50;;;;;;;37.07;26.14;99451.22;5070877;28;20258;-65
2022/08/05 05:54:00;;;;;;;4.10;2.63;;;;;;;37.05;26.15;99459.09;5070143;28;20248;-68
2022/08/05 05:56:28;;;;;;;3.00;2.80;;;;;;;36.90;26.18;99457.25;5070553;28;20196;-66
2022/08/05 05:58:54;;;;;;;13.18;3.90;;;;;;;37.07;25.26;99456.78;5070460;28;20235;-66
2022/08/05 06:01:21;;;;;;;4.40;3.17;;;;;;;36.86;25.38;99459.16;5070584;28;20677;-67
2022/08/05 06:03:48;;;;;;;6.32;2.88;;;;;;;36.76;26.00;99446.78;5066440;28;20313;-66
2022/08/05 06:06:15;;;;;;;4.47;2.67;;;;;;;37.23;25.75;99454.66;5070152;28;20664;-70
2022/08/05 06:08:43;;;;;;;6.82;3.08;;;;;;;37.19;25.23;99459.34;5074728;28;20188;-70
2022/08/05 06:11:11;;;;;;;3.85;2.47;;;;;;;36.93;26.08;99456.53;5073771;28;20196;-67
2022/08/05 06:13:37;;;;;;;7.50;3.20;;;;;;;37.07;25.19;99451.22;5070718;28;20703;-69
2022/08/05 06:16:05;;;;;;;5.18;3.03;;;;;;;36.73;25.31;99446.69;5070820;28;20202;-71
2022/08/05 06:18:31;;;;;;;8.10;3.03;;;;;;;36.57;25.37;99440.44;5074216;28;20211;-70
2022/08/05 06:20:58;;;;;;;7.93;2.95;;;;;;;36.42;25.50;99453.22;5074870;28;20279;-72
2022/08/05 06:23:25;;;;;;;7.53;3.28;;;;;;;36.26;25.61;99447.00;5069889;28;20268;-72
2022/08/05 06:25:52;;;;;;;5.82;2.85;;;;;;;36.27;25.91;99451.38;5072603;28;20192;-72
2022/08/05 06:28:20;;;;;;;5.40;3.22;;;;;;;36.32;26.19;99453.03;5069227;28;20288;-74
2022/08/05 06:30:47;;;;;;;8.40;3.35;;;;;;;36.40;25.79;99449.22;5069205;28;20249;-73
2022/08/05 06:33:14;;;;;;;7.30;2.92;;;;;;;36.51;25.82;99453.00;5070879;28;20219;-73
2022/08/05 06:35:41;;;;;;;3.92;2.95;;;;;;;36.39;25.92;99444.88;5073048;28;20196;-72
2022/08/05 06:38:07;;;;;;;3.30;2.92;;;;;;;36.40;25.87;99449.22;5073814;28;20566;-72
2022/08/05 06:40:34;;;;;;;8.85;3.60;;;;;;;36.45;26.44;99446.16;5074053;28;20188;-72
2022/08/05 06:43:01;;;;;;;2.60;2.40;;;;;;;36.27;26.54;99445.03;5074134;28;20634;-72
2022/08/05 06:45:29;;;;;;;5.80;3.28;;;;;;;36.24;26.39;99440.25;5073952;28;20192;-72
2022/08/05 06:47:56;;;;;;;3.10;2.78;;;;;;;36.09;26.89;99444.66;5074179;28;20188;-72
2022/08/05 06:50:23;;;;;;;3.00;2.80;;;;;;;36.35;26.47;99447.59;5073748;28;20225;-73
2022/08/05 06:52:50;;;;;;;4.70;2.97;;;;;;;36.26;26.77;99455.31;5074040;28;20223;-72
2022/08/05 06:55:17;;;;;;;4.78;3.38;;;;;;;36.53;27.22;99442.34;5073574;28;20715;-72
2022/08/05 06:57:44;;;;;;;5.80;3.22;;;;;;;36.67;26.52;99437.84;5074064;28;20223;-72
2022/08/05 07:00:11;;;;;;;3.95;2.95;;;;;;;36.59;26.68;99444.44;5073515;28;20544;-73
2022/08/05 07:02:43;;;;;;;8.25;2.97;;;;;;;36.68;26.98;99444.25;5073605;28;20245;-72
2022/08/05 07:05:11;;;;;;;4.82;3.30;;;;;;;36.47;27.18;99444.66;5073430;28;20651;-71
2022/08/05 07:07:37;;;;;;;3.33;3.03;;;;;;;36.27;27.59;99442.28;5073651;28;20223;-72
2022/08/05 07:10:05;;;;;;;10.70;3.60;;;;;;;36.55;27.91;99443.56;5073108;28;20748;-71
2022/08/05 07:18:01;;;;;;;3.28;3.00;;;;;;;36.13;28.12;99450.28;5073132;28;20187;-72
2022/08/05 07:20:28;;;;;;;5.68;3.10;;;;;;;36.21;27.65;99438.19;5073471;28;20200;-72
2022/08/05 07:22:55;;;;;;;3.15;2.95;;;;;;;36.37;27.75;99448.00;5073172;28;20199;-72
2022/08/05 07:25:21;;;;;;;3.42;2.90;;;;;;;36.49;27.30;99447.03;5073366;28;20203;-71
2022/08/05 07:27:49;;;;;;;2.75;2.65;;;;;;;36.62;27.20;99445.69;5073429;28;20204;-72
2022/08/05 07:30:15;;;;;;;6.22;2.95;;;;;;;36.63;27.33;99447.28;5073431;28;20257;-71
2022/08/05 07:32:42;;;;;;;5.38;2.78;;;;;;;36.53;27.30;99434.03;5072905;28;20219;-72
2022/08/05 07:35:12;;;;;;;7.22;3.28;;;;;;;36.58;27.19;99439.31;5073195;28;20218;-72
2022/08/05 07:37:39;;;;;;;6.30;3.22;;;;;;;36.44;27.71;99433.50;5072950;28;20691;-72
2022/08/05 07:40:07;;;;;;;4.22;3.28;;;;;;;36.20;27.94;99433.81;5072948;28;20192;-72
2022/08/05 07:42:34;;;;;;;4.60;3.60;;;;;;;36.55;27.81;99434.50;5072757;28;20737;-72
2022/08/05 07:45:01;;;;;;;3.55;2.65;;;;;;;36.82;27.90;99433.38;5073032;28;20192;-72
2022/08/05 07:47:28;;;;;;;4.10;3.08;;;;;;;36.85;26.85;99436.22;5072788;28;20199;-72
2022/08/05 07:49:54;;;;;;;3.38;2.97;;;;;;;37.10;27.07;99429.09;5072707;28;20198;-72
2022/08/05 07:52:22;;;;;;;4.18;3.10;;;;;;;36.73;27.18;99430.06;5072559;28;20699;-72
2022/08/05 07:54:49;;;;;;;3.25;2.53;;;;;;;36.89;27.41;99433.50;5072450;28;20663;-72
2022/08/05 07:57:16;;;;;;;3.95;3.17;;;;;;;37.08;26.56;99427.88;5072917;28;20188;-72
2022/08/05 07:59:43;;;;;;;3.13;2.90;;;;;;;36.74;27.63;99426.13;5072490;28;20188;-72
2022/08/05 08:02:10;;;;;;;4.32;3.38;;;;;;;36.79;26.94;99423.06;5072471;28;20196;-71
2022/08/05 08:04:37;;;;;;;3.13;2.72;;;;;;;37.10;26.76;99422.75;5072583;28;20598;-72
2022/08/05 08:07:04;;;;;;;5.80;3.22;;;;;;;37.30;26.69;99427.03;5071269;28;20306;-71
2022/08/05 08:09:32;;;;;;;5.97;2.78;;;;;;;37.43;26.74;99422.88;5072464;28;20196;-72
2022/08/05 08:11:58;;;;;;;4.88;3.25;;;;;;;37.36;26.79;99422.78;5072384;28;20188;-72
2022/08/05 08:14:25;;;;;;;5.50;2.90;;;;;;;37.63;26.29;99420.81;5069975;28;20216;-72
2022/08/05 08:16:52;;;;;;;4.60;3.00;;;;;;;37.45;26.27;99422.50;5068727;28;20257;-74
2022/08/05 08:19:18;;;;;;;7.82;3.28;;;;;;;37.47;25.94;99422.94;5070383;28;20203;-76
2022/08/05 08:21:45;;;;;;;3.95;2.70;;;;;;;37.47;26.25;99417.38;5068067;28;20203;-74
2022/08/05 08:24:12;;;;;;;5.20;3.33;;;;;;;37.32;26.58;99423.91;5065979;28;20724;-73
2022/08/05 08:26:40;;;;;;;5.55;2.83;;;;;;;37.43;25.94;99419.31;5068461;28;20329;-72
2022/08/05 08:29:07;;;;;;;4.45;3.15;;;;;;;37.27;25.71;99411.16;5065965;28;20268;-76
2022/08/05 08:31:33;;;;;;;4.25;3.00;;;;;;;37.12;26.52;99399.03;5067259;28;20195;-72
2022/08/05 08:34:00;;;;;;;6.93;3.03;;;;;;;37.34;26.78;99411.25;5065156;28;20273;-73
2022/08/05 08:36:27;;;;;;;3.53;2.90;;;;;;;37.55;26.31;99400.44;5067584;28;20188;-72
2022/08/05 08:38:54;;;;;;;5.55;3.60;;;;;;;37.79;26.04;99404.75;5065749;28;20283;-77
2022/08/05 08:41:23;;;;;;;3.38;3.05;;;;;;;37.98;25.25;99399.81;5066906;28;20279;-72
2022/08/05 08:43:55;;;;;;;14.15;4.47;;;;;;;37.96;24.76;99404.94;5067366;28;20196;-70
2022/08/05 08:46:23;;;;;;;3.38;3.08;;;;;;;38.17;25.34;99399.66;5067895;28;20188;-78
2022/08/05 08:48:53;;;;;;;4.70;2.80;;;;;;;38.19;25.20;99400.09;5066511;28;20253;-73
2022/08/05 08:51:21;;;;;;;4.45;3.10;;;;;;;38.28;25.43;99389.47;5067787;28;20249;-72
2022/08/05 08:53:48;;;;;;;3.30;2.40;;;;;;;37.65;25.51;99394.28;5068877;28;20215;-72
2022/08/05 08:56:16;;;;;;;6.90;2.47;;;;;;;37.73;25.24;99392.38;5069552;28;20222;-71
2022/08/05 08:58:43;;;;;;;4.32;2.80;;;;;;;37.88;24.72;99394.16;5070189;28;20305;-69
2022/08/05 09:01:12;;;;;;;4.70;2.78;;;;;;;37.97;24.35;99384.38;5069251;28;20188;-75
2022/08/05 09:03:38;;;;;;;3.13;2.80;;;;;;;38.17;24.15;99377.44;5069168;28;20791;-76
2022/08/05 09:06:05;;;;;;;3.92;2.38;;;;;;;38.12;24.08;99386.13;5068284;28;20249;-70
2022/08/05 09:08:32;;;;;;;4.07;2.70;;;;;;;37.86;24.40;99372.34;5068290;28;20602;-70
2022/08/05 09:10:59;;;;;;;2.55;2.40;;;;;;;37.97;24.69;99366.91;5069429;28;20207;-69
2022/08/05 09:13:26;;;;;;;5.60;2.42;;;;;;;37.87;25.35;99364.81;5070311;28;20219;-73
2022/08/05 09:15:53;;;;;;;2.63;2.42;;;;;;;37.93;24.61;99358.56;5070421;28;20248;-69
2022/08/05 09:18:21;;;;;;;3.67;2.38;;;;;;;37.96;24.75;99359.78;5069525;28;20664;-70
2022/08/05 09:20:50;;;;;;;3.63;2.55;;;;;;;38.10;23.67;99359.94;5069772;28;20199;-69
2022/08/05 09:23:19;;;;;;;2.00;1.90;;;;;;;38.30;22.70;99358.53;5070538;28;20196;-70
2022/08/05 09:25:47;;;;;;;3.50;1.92;;;;;;;38.45;22.78;99344.41;5070425;28;20192;-70
2022/08/05 09:28:16;;;;;;;2.47;2.28;;;;;;;38.61;22.35;99347.72;5070545;28;20290;-71
2022/08/05 09:30:54;;;;;;;5.43;2.40;;;;;;;38.51;22.69;99345.69;5071500;28;20191;-70
2022/08/05 09:33:22;;;;;;;2.50;2.30;;;;;;;38.61;22.79;99347.72;5071305;28;20211;-70
2022/08/05 09:35:56;;;;;;;3.88;2.38;;;;;;;38.68;22.34;99347.78;5070600;28;20713;-70
2022/08/05 09:38:23;;;;;;;2.60;2.03;;;;;;;37.99;22.93;99343.16;5070271;28;20261;-70
2022/08/05 09:40:49;;;;;;;3.90;1.95;;;;;;;38.13;22.62;99336.97;5072465;28;20203;-70
2022/08/05 09:43:28;;;;;;;2.75;2.40;;;;;;;38.23;22.85;99334.31;5074208;28;20200;-70
2022/08/05 09:45:55;;;;;;;7.70;2.42;;;;;;;38.11;23.23;99326.25;5074093;28;20195;-72
2022/08/05 09:48:25;;;;;;;2.08;1.95;;;;;;;38.03;23.53;99330.13;5073219;28;20613;-70
2022/08/05 09:50:54;;;;;;;2.50;2.40;;;;;;;38.23;23.57;99333.50;5074372;28;20191;-70
2022/08/05 09:53:20;;;;;;;2.53;2.30;;;;;;;38.21;23.31;99328.31;5073012;28;20703;-73
2022/08/05 09:55:51;;;;;;;2.33;2.20;;;;;;;37.58;23.25;99313.75;5073365;28;20273;-71
2022/08/05 09:58:18;;;;;;;5.65;2.20;;;;;;;37.79;23.18;99311.22;5073040;28;20588;-70
2022/08/05 10:01:00;;;;;;;2.60;2.15;;;;;;;38.01;22.35;99307.50;5072707;28;20199;-71
2022/08/05 10:03:29;;;;;;;2.53;2.33;;;;;;;38.26;22.72;99308.56;5073134;28;20199;-70
2022/08/05 10:06:07;;;;;;;4.85;2.50;;;;;;;38.18;23.32;99306.91;5073205;28;20195;-69
2022/08/05 10:08:36;;;;;;;2.38;2.03;;;;;;;38.22;23.24;99293.03;5070635;28;20188;-72
2022/08/05 10:11:05;;;;;;;2.30;2.10;;;;;;;38.21;23.54;99294.22;5073109;28;20265;-70
2022/08/05 10:13:35;;;;;;;2.45;2.25;;;;;;;37.36;23.74;99311.91;5072767;28;20310;-71
2022/08/05 10:16:03;;;;;;;2.88;2.65;;;;;;;37.63;23.19;99307.88;5074095;28;20210;-71
2022/08/05 10:18:32;;;;;;;2.67;2.35;;;;;;;37.94;22.97;99296.34;5074697;28;20196;-71
2022/08/05 10:21:02;;;;;;;2.72;2.45;;;;;;;38.19;23.03;99308.50;5074734;28;20616;-71
2022/08/05 10:23:31;;;;;;;2.80;2.70;;;;;;;38.07;23.11;99288.53;5073596;28;20265;-73
2022/08/05 10:25:59;;;;;;;5.82;2.55;;;;;;;37.64;23.00;99298.38;5074152;28;20199;-71
2022/08/05 10:28:26;;;;;;;3.58;2.70;;;;;;;37.75;23.56;99296.53;5074153;28;20196;-73
2022/08/05 10:30:53;;;;;;;2.55;2.45;;;;;;;37.90;23.17;99287.19;5073881;28;20192;-72
2022/08/05 10:33:22;;;;;;;2.85;2.20;;;;;;;37.93;23.32;99293.94;5073566;28;20594;-75
2022/08/05 10:35:50;;;;;;;2.58;2.42;;;;;;;38.07;22.76;99292.13;5073379;28;20223;-72
2022/08/05 10:38:19;;;;;;;2.63;2.35;;;;;;;38.11;22.70;99281.84;5073113;28;20196;-75
2022/08/05 10:40:56;;;;;;;6.07;2.30;;;;;;;38.20;22.58;99284.31;5071906;28;20188;-72
2022/08/05 10:43:41;;;;;;;4.43;2.60;;;;;;;38.10;22.32;99277.50;5071382;28;20192;-75
2022/08/05 10:46:10;;;;;;;4.05;2.47;;;;;;;38.20;22.67;99282.31;5072239;28;20824;-78
2022/08/05 10:48:39;;;;;;;2.60;2.38;;;;;;;38.23;22.90;99275.19;5072280;28;20254;-72
2022/08/05 10:51:10;;;;;;;2.90;2.50;;;;;;;38.31;22.29;99261.00;5071677;28;20665;-72
2022/08/05 10:53:43;;;;;;;2.20;2.10;;;;;;;38.49;21.96;99267.50;5072210;28;20223;-72
2022/08/05 10:56:13;;;;;;;8.00;3.22;;;;;;;38.64;22.22;99266.44;5073046;28;20196;-73
2022/08/05 10:59:04;;;;;;;4.05;2.65;;;;;;;38.49;22.31;99266.72;5071623;28;20703;-70
2022/08/05 11:01:32;;;;;;;3.00;2.67;;;;;;;38.01;22.86;99265.88;5073114;28;20281;-72
2022/08/05 11:04:05;;;;;;;2.67;2.45;;;;;;;38.06;22.77;99262.78;5072084;28;20253;-72
2022/08/05 11:06:34;;;;;;;3.03;2.40;;;;;;;37.97;22.99;99256.75;5071714;28;20192;-71
2022/08/05 11:09:20;;;;;;;3.00;2.80;;;;;;;37.88;23.24;99247.91;5071276;28;20192;-72
2022/08/05 11:11:48;;;;;;;2.75;2.40;;;;;;;37.82;23.35;99249.47;5070728;28;20203;-72
2022/08/05 11:14:27;;;;;;;4.57;2.50;;;;;;;37.74;23.46;99247.78;5069668;28;20277;-74
2022/08/05 11:17:27;;;;;;;2.40;2.30;;;;;;;37.83;23.21;99244.69;5071033;28;20192;-76
2022/08/05 11:19:56;;;;;;;3.28;2.38;;;;;;;38.02;22.71;99239.72;5068100;28;20648;-72
2022/08/05 11:22:42;;;;;;;4.53;2.50;;;;;;;37.82;22.97;99243.91;5070644;28;20192;-70
2022/08/05 11:25:31;;;;;;;2.30;2.20;;;;;;;37.90;22.86;99240.03;5072536;28;20191;-69
2022/08/05 11:28:31;;;;;;;2.67;2.35;;;;;;;37.66;22.67;99248.91;5072478;28;20249;-68
2022/08/05 11:31:21;;;;;;;2.50;2.28;;;;;;;36.63;23.76;99240.41;5072791;28;20188;-67
2022/08/05 11:33:57;;;;;;;2.67;2.58;;;;;;;36.73;24.24;99236.25;5072647;28;20752;-68
2022/08/05 11:36:50;;;;;;;2.60;2.40;;;;;;;36.67;23.76;99226.63;5072776;28;20214;-68
2022/08/05 11:39:49;;;;;;;2.92;2.72;;;;;;;36.65;23.92;99227.00;5073879;28;20184;-68
2022/08/05 11:42:23;;;;;;;16.80;15.50;;;;;;;36.86;24.11;99223.75;5052920;28;20194;-69
2022/08/05 11:44:50;;;;;;;9.50;2.75;;;;;;;36.92;23.76;99216.72;5053101;28;20192;-69
2022/08/05 11:47:21;;;;;;;2.60;2.50;;;;;;;37.11;23.10;99219.34;5052878;28;20196;-69
2022/08/05 11:49:48;;;;;;;2.85;2.55;;;;;;;37.31;23.87;99211.66;5053498;28;20239;-69